sensor_id;sensor_type;location;lat;lon;timestamp;temperature;humidity
54178;DHT22;40085;53.004;6.770;2022-10-10T00:00:45;8.10;94.50
54178;DHT22;40085;53.004;6.770;2022-10-10T00:03:11;8.10;94.00
54178;DHT22;40085;53.004;6.770;2022-10-10T00:05:38;8.30;94.90
54178;DHT22;40085;53.004;6.770;2022-10-10T00:08:04;8.00;94.90
54178;DHT22;40085;53.004;6.770;2022-10-10T00:10:30;8.00;94.90
54178;DHT22;40085;53.004;6.770;2022-10-10T00:12:56;8.00;94.80
54178;DHT22;40085;53.004;6.770;2022-10-10T00:15:22;8.00;94.90
54178;DHT22;40085;53.004;6.770;2022-10-10T00:17:47;7.90;95.20
54178;DHT22;40085;53.004;6.770;2022-10-10T00:20:15;7.90;95.30
54178;DHT22;40085;53.004;6.770;2022-10-10T00:22:41;7.90;94.80
54178;DHT22;40085;53.004;6.770;2022-10-10T00:25:08;7.80;95.00
54178;DHT22;40085;53.004;6.770;2022-10-10T00:27:35;7.80;95.60
54178;DHT22;40085;53.004;6.770;2022-10-10T00:30:01;7.80;96.10
54178;DHT22;40085;53.004;6.770;2022-10-10T00:32:27;7.80;96.30
54178;DHT22;40085;53.004;6.770;2022-10-10T00:34:53;7.80;96.40
54178;DHT22;40085;53.004;6.770;2022-10-10T00:37:18;7.80;97.40
54178;DHT22;40085;53.004;6.770;2022-10-10T00:39:44;7.80;97.40
54178;DHT22;40085;53.004;6.770;2022-10-10T00:42:14;7.70;98.00
54178;DHT22;40085;53.004;6.770;2022-10-10T00:44:41;7.70;98.40
54178;DHT22;40085;53.004;6.770;2022-10-10T00:47:08;7.70;98.40
54178;DHT22;40085;53.004;6.770;2022-10-10T00:49:35;7.70;98.40
54178;DHT22;40085;53.004;6.770;2022-10-10T00:52:03;7.60;99.30
54178;DHT22;40085;53.004;6.770;2022-10-10T00:54:31;7.60;99.10
54178;DHT22;40085;53.004;6.770;2022-10-10T00:57:10;7.60;99.10
54178;DHT22;40085;53.004;6.770;2022-10-10T00:59:38;7.60;99.10
54178;DHT22;40085;53.004;6.770;2022-10-10T01:02:05;7.80;99.40
54178;DHT22;40085;53.004;6.770;2022-10-10T01:04:40;7.50;99.20
54178;DHT22;40085;53.004;6.770;2022-10-10T01:07:13;7.50;99.50
54178;DHT22;40085;53.004;6.770;2022-10-10T01:09:40;7.40;99.90
54178;DHT22;40085;53.004;6.770;2022-10-10T01:12:24;7.40;99.90
54178;DHT22;40085;53.004;6.770;2022-10-10T01:31:03;7.30;99.90
54178;DHT22;40085;53.004;6.770;2022-10-10T01:39:45;7.20;99.90
54178;DHT22;40085;53.004;6.770;2022-10-10T01:42:38;7.20;99.90
54178;DHT22;40085;53.004;6.770;2022-10-10T01:45:06;7.20;99.90
54178;DHT22;40085;53.004;6.770;2022-10-10T01:47:31;7.20;99.90
54178;DHT22;40085;53.004;6.770;2022-10-10T01:50:01;7.50;99.90
54178;DHT22;40085;53.004;6.770;2022-10-10T02:03:18;7.10;99.90
54178;DHT22;40085;53.004;6.770;2022-10-10T02:05:50;7.10;99.90
54178;DHT22;40085;53.004;6.770;2022-10-10T02:10:58;7.00;99.90
54178;DHT22;40085;53.004;6.770;2022-10-10T02:13:37;7.10;99.90
54178;DHT22;40085;53.004;6.770;2022-10-10T02:16:07;7.00;99.90
54178;DHT22;40085;53.004;6.770;2022-10-10T02:18:36;7.00;99.90
54178;DHT22;40085;53.004;6.770;2022-10-10T02:21:03;7.00;99.90
54178;DHT22;40085;53.004;6.770;2022-10-10T02:23:31;7.00;99.90
54178;DHT22;40085;53.004;6.770;2022-10-10T02:25:58;7.00;99.90
54178;DHT22;40085;53.004;6.770;2022-10-10T02:28:38;7.00;99.90
54178;DHT22;40085;53.004;6.770;2022-10-10T02:31:11;7.00;99.90
54178;DHT22;40085;53.004;6.770;2022-10-10T02:33:49;7.00;99.90
54178;DHT22;40085;53.004;6.770;2022-10-10T02:36:17;7.00;99.90
54178;DHT22;40085;53.004;6.770;2022-10-10T02:38:45;7.00;99.90
54178;DHT22;40085;53.004;6.770;2022-10-10T02:41:13;7.10;99.90
54178;DHT22;40085;53.004;6.770;2022-10-10T02:43:41;7.10;99.90
54178;DHT22;40085;53.004;6.770;2022-10-10T02:46:09;7.20;99.90
54178;DHT22;40085;53.004;6.770;2022-10-10T02:48:36;7.20;99.90
54178;DHT22;40085;53.004;6.770;2022-10-10T02:51:02;7.20;99.90
54178;DHT22;40085;53.004;6.770;2022-10-10T02:53:28;7.30;99.90
54178;DHT22;40085;53.004;6.770;2022-10-10T02:55:54;7.30;99.90
54178;DHT22;40085;53.004;6.770;2022-10-10T02:58:19;7.40;99.90
54178;DHT22;40085;53.004;6.770;2022-10-10T03:00:45;7.40;99.90
54178;DHT22;40085;53.004;6.770;2022-10-10T03:03:11;8.10;99.90
54178;DHT22;40085;53.004;6.770;2022-10-10T03:05:36;7.40;99.90
54178;DHT22;40085;53.004;6.770;2022-10-10T03:08:02;7.40;99.90
54178;DHT22;40085;53.004;6.770;2022-10-10T03:10:27;7.40;99.90
54178;DHT22;40085;53.004;6.770;2022-10-10T03:12:53;7.40;99.90
54178;DHT22;40085;53.004;6.770;2022-10-10T03:15:19;7.50;99.90
54178;DHT22;40085;53.004;6.770;2022-10-10T03:17:44;7.60;99.90
54178;DHT22;40085;53.004;6.770;2022-10-10T03:20:10;7.50;99.90
54178;DHT22;40085;53.004;6.770;2022-10-10T03:22:36;7.50;99.90
54178;DHT22;40085;53.004;6.770;2022-10-10T03:25:02;7.70;99.90
54178;DHT22;40085;53.004;6.770;2022-10-10T03:27:28;7.50;99.90
54178;DHT22;40085;53.004;6.770;2022-10-10T03:29:53;7.50;99.90
54178;DHT22;40085;53.004;6.770;2022-10-10T03:32:19;7.60;99.90
54178;DHT22;40085;53.004;6.770;2022-10-10T03:34:45;7.50;99.90
54178;DHT22;40085;53.004;6.770;2022-10-10T03:37:10;7.50;99.90
54178;DHT22;40085;53.004;6.770;2022-10-10T03:39:36;7.60;99.90
54178;DHT22;40085;53.004;6.770;2022-10-10T03:42:02;7.60;99.90
54178;DHT22;40085;53.004;6.770;2022-10-10T03:44:27;7.50;99.90
54178;DHT22;40085;53.004;6.770;2022-10-10T03:46:53;7.60;99.90
54178;DHT22;40085;53.004;6.770;2022-10-10T03:49:19;7.50;99.90
54178;DHT22;40085;53.004;6.770;2022-10-10T03:51:44;7.50;99.90
54178;DHT22;40085;53.004;6.770;2022-10-10T03:54:10;7.50;99.90
54178;DHT22;40085;53.004;6.770;2022-10-10T03:56:36;7.50;99.90
54178;DHT22;40085;53.004;6.770;2022-10-10T03:59:01;7.90;99.90
54178;DHT22;40085;53.004;6.770;2022-10-10T04:01:29;7.50;99.90
54178;DHT22;40085;53.004;6.770;2022-10-10T04:03:55;7.50;99.90
54178;DHT22;40085;53.004;6.770;2022-10-10T04:06:21;7.50;99.90
54178;DHT22;40085;53.004;6.770;2022-10-10T04:08:47;7.50;99.90
54178;DHT22;40085;53.004;6.770;2022-10-10T04:11:12;8.30;99.90
54178;DHT22;40085;53.004;6.770;2022-10-10T04:13:38;7.50;99.90
54178;DHT22;40085;53.004;6.770;2022-10-10T04:16:04;7.50;99.90
54178;DHT22;40085;53.004;6.770;2022-10-10T04:18:30;7.50;99.90
54178;DHT22;40085;53.004;6.770;2022-10-10T04:20:56;7.50;99.90
54178;DHT22;40085;53.004;6.770;2022-10-10T04:23:21;7.50;99.90
54178;DHT22;40085;53.004;6.770;2022-10-10T04:25:51;7.50;99.90
54178;DHT22;40085;53.004;6.770;2022-10-10T04:28:17;7.50;99.90
54178;DHT22;40085;53.004;6.770;2022-10-10T04:30:43;8.40;99.90
54178;DHT22;40085;53.004;6.770;2022-10-10T04:33:09;7.40;99.90
54178;DHT22;40085;53.004;6.770;2022-10-10T04:35:35;7.40;99.90
54178;DHT22;40085;53.004;6.770;2022-10-10T04:38:00;7.40;99.90
54178;DHT22;40085;53.004;6.770;2022-10-10T04:40:26;7.40;99.90
54178;DHT22;40085;53.004;6.770;2022-10-10T04:42:53;7.40;99.90
54178;DHT22;40085;53.004;6.770;2022-10-10T04:45:18;7.70;99.90
54178;DHT22;40085;53.004;6.770;2022-10-10T04:47:44;7.60;99.90
54178;DHT22;40085;53.004;6.770;2022-10-10T04:50:10;8.10;99.90
54178;DHT22;40085;53.004;6.770;2022-10-10T04:52:35;7.60;99.90
54178;DHT22;40085;53.004;6.770;2022-10-10T04:55:01;7.30;99.90
54178;DHT22;40085;53.004;6.770;2022-10-10T04:57:27;7.30;99.90
54178;DHT22;40085;53.004;6.770;2022-10-10T04:59:52;7.90;99.90
54178;DHT22;40085;53.004;6.770;2022-10-10T05:02:18;7.30;99.90
54178;DHT22;40085;53.004;6.770;2022-10-10T05:04:44;7.30;99.90
54178;DHT22;40085;53.004;6.770;2022-10-10T05:07:09;7.20;99.90
54178;DHT22;40085;53.004;6.770;2022-10-10T05:09:35;7.30;99.90
54178;DHT22;40085;53.004;6.770;2022-10-10T05:12:01;8.10;99.90
54178;DHT22;40085;53.004;6.770;2022-10-10T05:14:26;7.20;99.90
54178;DHT22;40085;53.004;6.770;2022-10-10T05:16:52;7.20;99.90
54178;DHT22;40085;53.004;6.770;2022-10-10T05:19:18;7.70;99.90
54178;DHT22;40085;53.004;6.770;2022-10-10T05:21:43;7.20;99.90
54178;DHT22;40085;53.004;6.770;2022-10-10T05:24:09;7.20;99.90
54178;DHT22;40085;53.004;6.770;2022-10-10T05:26:35;7.20;99.90
54178;DHT22;40085;53.004;6.770;2022-10-10T05:29:00;7.50;99.90
54178;DHT22;40085;53.004;6.770;2022-10-10T05:31:26;7.20;99.90
54178;DHT22;40085;53.004;6.770;2022-10-10T05:33:53;7.20;99.90
54178;DHT22;40085;53.004;6.770;2022-10-10T05:36:19;7.10;99.90
54178;DHT22;40085;53.004;6.770;2022-10-10T05:38:44;7.20;99.90
54178;DHT22;40085;53.004;6.770;2022-10-10T05:41:10;7.10;99.90
54178;DHT22;40085;53.004;6.770;2022-10-10T05:43:37;7.10;99.90
54178;DHT22;40085;53.004;6.770;2022-10-10T05:46:03;7.10;99.90
54178;DHT22;40085;53.004;6.770;2022-10-10T05:48:30;7.10;99.90
54178;DHT22;40085;53.004;6.770;2022-10-10T05:50:57;7.10;99.90
54178;DHT22;40085;53.004;6.770;2022-10-10T05:53:24;7.20;99.90
54178;DHT22;40085;53.004;6.770;2022-10-10T05:55:50;7.30;99.90
54178;DHT22;40085;53.004;6.770;2022-10-10T05:58:16;7.20;99.90
54178;DHT22;40085;53.004;6.770;2022-10-10T06:00:43;7.10;99.90
54178;DHT22;40085;53.004;6.770;2022-10-10T06:03:10;7.90;99.90
54178;DHT22;40085;53.004;6.770;2022-10-10T06:05:42;7.20;99.90
54178;DHT22;40085;53.004;6.770;2022-10-10T06:08:09;7.20;99.90
54178;DHT22;40085;53.004;6.770;2022-10-10T06:10:36;7.20;99.90
54178;DHT22;40085;53.004;6.770;2022-10-10T06:13:02;7.20;99.90
54178;DHT22;40085;53.004;6.770;2022-10-10T06:15:29;7.20;99.90
54178;DHT22;40085;53.004;6.770;2022-10-10T06:17:54;7.20;99.90
54178;DHT22;40085;53.004;6.770;2022-10-10T06:20:20;7.20;99.90
54178;DHT22;40085;53.004;6.770;2022-10-10T06:22:46;7.20;99.90
54178;DHT22;40085;53.004;6.770;2022-10-10T06:25:11;7.50;99.90
54178;DHT22;40085;53.004;6.770;2022-10-10T06:27:37;7.30;99.90
54178;DHT22;40085;53.004;6.770;2022-10-10T06:30:03;8.10;99.90
54178;DHT22;40085;53.004;6.770;2022-10-10T06:32:29;7.40;99.90
54178;DHT22;40085;53.004;6.770;2022-10-10T06:34:55;7.40;99.90
54178;DHT22;40085;53.004;6.770;2022-10-10T06:37:21;7.50;99.90
54178;DHT22;40085;53.004;6.770;2022-10-10T06:39:46;7.60;99.90
54178;DHT22;40085;53.004;6.770;2022-10-10T06:42:12;7.50;99.90
54178;DHT22;40085;53.004;6.770;2022-10-10T06:44:38;7.60;99.90
54178;DHT22;40085;53.004;6.770;2022-10-10T06:47:03;7.60;99.90
54178;DHT22;40085;53.004;6.770;2022-10-10T06:49:29;7.70;99.90
54178;DHT22;40085;53.004;6.770;2022-10-10T06:51:55;7.70;99.90
54178;DHT22;40085;53.004;6.770;2022-10-10T06:54:20;7.80;99.90
54178;DHT22;40085;53.004;6.770;2022-10-10T06:56:46;7.90;99.90
54178;DHT22;40085;53.004;6.770;2022-10-10T06:59:12;7.90;99.90
54178;DHT22;40085;53.004;6.770;2022-10-10T07:01:37;8.00;99.90
54178;DHT22;40085;53.004;6.770;2022-10-10T07:04:03;8.10;99.90
54178;DHT22;40085;53.004;6.770;2022-10-10T07:06:30;8.20;99.90
54178;DHT22;40085;53.004;6.770;2022-10-10T07:08:56;8.30;99.90
54178;DHT22;40085;53.004;6.770;2022-10-10T07:11:23;8.60;99.90
54178;DHT22;40085;53.004;6.770;2022-10-10T07:13:49;8.50;99.90
54178;DHT22;40085;53.004;6.770;2022-10-10T07:16:18;8.60;99.50
54178;DHT22;40085;53.004;6.770;2022-10-10T07:18:44;8.80;98.90
54178;DHT22;40085;53.004;6.770;2022-10-10T07:21:09;8.90;98.60
54178;DHT22;40085;53.004;6.770;2022-10-10T07:23:35;9.10;97.90
54178;DHT22;40085;53.004;6.770;2022-10-10T07:26:06;9.20;97.30
54178;DHT22;40085;53.004;6.770;2022-10-10T07:28:35;9.20;97.00
54178;DHT22;40085;53.004;6.770;2022-10-10T07:31:04;9.30;96.50
54178;DHT22;40085;53.004;6.770;2022-10-10T07:33:32;9.30;96.50
54178;DHT22;40085;53.004;6.770;2022-10-10T07:35:58;9.40;96.70
54178;DHT22;40085;53.004;6.770;2022-10-10T07:38:24;9.40;96.60
54178;DHT22;40085;53.004;6.770;2022-10-10T07:40:50;9.50;96.10
54178;DHT22;40085;53.004;6.770;2022-10-10T07:43:16;9.60;95.80
54178;DHT22;40085;53.004;6.770;2022-10-10T07:45:42;9.70;95.30
54178;DHT22;40085;53.004;6.770;2022-10-10T07:48:07;9.70;95.60
54178;DHT22;40085;53.004;6.770;2022-10-10T07:50:33;9.80;95.30
54178;DHT22;40085;53.004;6.770;2022-10-10T07:52:59;9.90;95.10
54178;DHT22;40085;53.004;6.770;2022-10-10T07:55:25;9.90;94.90
54178;DHT22;40085;53.004;6.770;2022-10-10T07:57:50;10.50;95.20
54178;DHT22;40085;53.004;6.770;2022-10-10T08:00:17;10.00;94.90
54178;DHT22;40085;53.004;6.770;2022-10-10T08:02:42;10.00;95.10
54178;DHT22;40085;53.004;6.770;2022-10-10T08:05:08;10.30;95.00
54178;DHT22;40085;53.004;6.770;2022-10-10T08:07:34;10.20;95.30
54178;DHT22;40085;53.004;6.770;2022-10-10T08:10:00;10.20;94.60
54178;DHT22;40085;53.004;6.770;2022-10-10T08:12:27;10.40;95.10
54178;DHT22;40085;53.004;6.770;2022-10-10T08:14:53;10.30;94.10
54178;DHT22;40085;53.004;6.770;2022-10-10T08:17:18;10.60;93.50
54178;DHT22;40085;53.004;6.770;2022-10-10T08:19:44;10.70;93.40
54178;DHT22;40085;53.004;6.770;2022-10-10T08:22:10;10.70;92.80
54178;DHT22;40085;53.004;6.770;2022-10-10T08:24:36;10.70;91.70
54178;DHT22;40085;53.004;6.770;2022-10-10T08:27:02;10.70;90.60
54178;DHT22;40085;53.004;6.770;2022-10-10T08:29:28;10.70;91.30
54178;DHT22;40085;53.004;6.770;2022-10-10T08:31:53;10.70;92.30
54178;DHT22;40085;53.004;6.770;2022-10-10T08:34:19;10.80;92.50
54178;DHT22;40085;53.004;6.770;2022-10-10T08:36:45;10.80;91.00
54178;DHT22;40085;53.004;6.770;2022-10-10T08:39:10;10.90;91.80
54178;DHT22;40085;53.004;6.770;2022-10-10T08:41:48;10.90;91.40
54178;DHT22;40085;53.004;6.770;2022-10-10T08:46:56;10.90;91.90
54178;DHT22;40085;53.004;6.770;2022-10-10T08:52:31;11.10;91.50
54178;DHT22;40085;53.004;6.770;2022-10-10T08:55:00;11.10;91.50
54178;DHT22;40085;53.004;6.770;2022-10-10T08:57:31;11.20;92.30
54178;DHT22;40085;53.004;6.770;2022-10-10T09:00:05;11.30;92.10
54178;DHT22;40085;53.004;6.770;2022-10-10T09:02:37;11.30;91.30
54178;DHT22;40085;53.004;6.770;2022-10-10T09:05:04;11.50;91.40
54178;DHT22;40085;53.004;6.770;2022-10-10T09:10:26;11.60;88.00
54178;DHT22;40085;53.004;6.770;2022-10-10T09:15:55;11.80;89.40
54178;DHT22;40085;53.004;6.770;2022-10-10T09:21:48;12.00;82.90
54178;DHT22;40085;53.004;6.770;2022-10-10T09:24:15;12.00;82.80
54178;DHT22;40085;53.004;6.770;2022-10-10T09:26:59;12.10;82.50
54178;DHT22;40085;53.004;6.770;2022-10-10T09:29:36;12.20;80.20
54178;DHT22;40085;53.004;6.770;2022-10-10T09:32:12;12.20;78.80
54178;DHT22;40085;53.004;6.770;2022-10-10T09:34:54;12.30;81.80
54178;DHT22;40085;53.004;6.770;2022-10-10T09:37:29;12.40;81.60
54178;DHT22;40085;53.004;6.770;2022-10-10T09:40:02;12.40;79.00
54178;DHT22;40085;53.004;6.770;2022-10-10T09:42:33;12.60;77.80
54178;DHT22;40085;53.004;6.770;2022-10-10T09:45:00;12.60;79.90
54178;DHT22;40085;53.004;6.770;2022-10-10T09:47:27;12.70;78.70
54178;DHT22;40085;53.004;6.770;2022-10-10T09:49:53;12.80;74.70
54178;DHT22;40085;53.004;6.770;2022-10-10T09:52:26;12.90;73.60
54178;DHT22;40085;53.004;6.770;2022-10-10T09:55:05;13.00;70.80
54178;DHT22;40085;53.004;6.770;2022-10-10T09:57:40;13.20;69.20
54178;DHT22;40085;53.004;6.770;2022-10-10T10:00:29;13.30;70.10
54178;DHT22;40085;53.004;6.770;2022-10-10T10:03:18;13.40;61.70
54178;DHT22;40085;53.004;6.770;2022-10-10T10:05:58;13.50;64.10
54178;DHT22;40085;53.004;6.770;2022-10-10T10:08:33;13.60;67.50
54178;DHT22;40085;53.004;6.770;2022-10-10T10:10:59;13.60;66.90
54178;DHT22;40085;53.004;6.770;2022-10-10T10:13:32;13.60;62.50
54178;DHT22;40085;53.004;6.770;2022-10-10T10:16:08;13.60;62.20
54178;DHT22;40085;53.004;6.770;2022-10-10T10:21:08;13.70;65.70
54178;DHT22;40085;53.004;6.770;2022-10-10T10:26:20;13.70;63.60
54178;DHT22;40085;53.004;6.770;2022-10-10T10:28:49;13.80;66.70
54178;DHT22;40085;53.004;6.770;2022-10-10T10:37:24;14.00;65.00
54178;DHT22;40085;53.004;6.770;2022-10-10T10:40:19;14.00;65.20
54178;DHT22;40085;53.004;6.770;2022-10-10T10:48:53;14.20;65.90
54178;DHT22;40085;53.004;6.770;2022-10-10T10:59:59;15.00;55.70
54178;DHT22;40085;53.004;6.770;2022-10-10T11:02:46;15.10;38.10
54178;DHT22;40085;53.004;6.770;2022-10-10T11:16:27;15.50;16.00
54178;DHT22;40085;53.004;6.770;2022-10-10T11:21:48;15.60;24.50
54178;DHT22;40085;53.004;6.770;2022-10-10T11:24:37;15.60;26.30
54178;DHT22;40085;53.004;6.770;2022-10-10T11:27:18;15.50;19.80
54178;DHT22;40085;53.004;6.770;2022-10-10T11:32:35;15.40;11.20
54178;DHT22;40085;53.004;6.770;2022-10-10T11:44:11;14.90;21.60
54178;DHT22;40085;53.004;6.770;2022-10-10T11:47:06;14.80;38.60
54178;DHT22;40085;53.004;6.770;2022-10-10T11:49:37;14.70;34.00
54178;DHT22;40085;53.004;6.770;2022-10-10T11:54:57;14.60;47.70
54178;DHT22;40085;53.004;6.770;2022-10-10T11:57:45;14.50;48.00
54178;DHT22;40085;53.004;6.770;2022-10-10T12:00:16;14.40;49.00
54178;DHT22;40085;53.004;6.770;2022-10-10T12:02:44;14.40;51.10
54178;DHT22;40085;53.004;6.770;2022-10-10T12:05:27;14.30;53.90
54178;DHT22;40085;53.004;6.770;2022-10-10T12:10:45;14.20;65.30
54178;DHT22;40085;53.004;6.770;2022-10-10T12:15:53;14.10;80.70
54178;DHT22;40085;53.004;6.770;2022-10-10T12:18:28;14.00;82.90
54178;DHT22;40085;53.004;6.770;2022-10-10T12:21:04;14.00;88.00
54178;DHT22;40085;53.004;6.770;2022-10-10T12:23:31;14.00;90.00
54178;DHT22;40085;53.004;6.770;2022-10-10T12:25:57;14.00;89.50
54178;DHT22;40085;53.004;6.770;2022-10-10T12:29:13;14.00;89.60
54178;DHT22;40085;53.004;6.770;2022-10-10T12:46:40;14.00;90.30
54178;DHT22;40085;53.004;6.770;2022-10-10T12:49:21;14.00;90.40
54178;DHT22;40085;53.004;6.770;2022-10-10T12:52:20;14.00;91.00
54178;DHT22;40085;53.004;6.770;2022-10-10T12:54:49;14.00;91.50
54178;DHT22;40085;53.004;6.770;2022-10-10T12:57:41;14.00;92.30
54178;DHT22;40085;53.004;6.770;2022-10-10T13:00:16;14.00;93.10
54178;DHT22;40085;53.004;6.770;2022-10-10T13:02:50;14.00;94.20
54178;DHT22;40085;53.004;6.770;2022-10-10T13:05:18;13.90;97.50
54178;DHT22;40085;53.004;6.770;2022-10-10T13:07:46;13.90;96.80
54178;DHT22;40085;53.004;6.770;2022-10-10T13:10:22;14.00;97.00
54178;DHT22;40085;53.004;6.770;2022-10-10T13:12:58;13.90;98.20
54178;DHT22;40085;53.004;6.770;2022-10-10T13:15:25;13.90;99.40
54178;DHT22;40085;53.004;6.770;2022-10-10T13:17:51;13.90;99.70
54178;DHT22;40085;53.004;6.770;2022-10-10T13:20:36;13.90;99.90
54178;DHT22;40085;53.004;6.770;2022-10-10T13:23:10;13.90;99.90
54178;DHT22;40085;53.004;6.770;2022-10-10T13:25:38;13.80;99.90
54178;DHT22;40085;53.004;6.770;2022-10-10T13:28:13;13.80;99.90
54178;DHT22;40085;53.004;6.770;2022-10-10T13:30:40;13.70;99.90
54178;DHT22;40085;53.004;6.770;2022-10-10T13:33:16;13.80;99.90
54178;DHT22;40085;53.004;6.770;2022-10-10T13:35:44;13.70;99.90
54178;DHT22;40085;53.004;6.770;2022-10-10T13:38:11;13.70;99.90
54178;DHT22;40085;53.004;6.770;2022-10-10T13:40:39;13.70;99.90
54178;DHT22;40085;53.004;6.770;2022-10-10T13:43:15;13.70;99.90
54178;DHT22;40085;53.004;6.770;2022-10-10T13:45:45;13.70;99.90
54178;DHT22;40085;53.004;6.770;2022-10-10T13:58:24;13.60;99.90
54178;DHT22;40085;53.004;6.770;2022-10-10T14:00:57;13.50;99.90
54178;DHT22;40085;53.004;6.770;2022-10-10T14:03:24;13.50;99.90
54178;DHT22;40085;53.004;6.770;2022-10-10T14:05:51;13.80;99.90
54178;DHT22;40085;53.004;6.770;2022-10-10T14:08:23;13.70;99.90
54178;DHT22;40085;53.004;6.770;2022-10-10T14:10:59;13.50;99.90
54178;DHT22;40085;53.004;6.770;2022-10-10T14:13:27;13.40;99.90
54178;DHT22;40085;53.004;6.770;2022-10-10T14:16:28;13.40;99.90
54178;DHT22;40085;53.004;6.770;2022-10-10T14:18:53;13.40;99.90
54178;DHT22;40085;53.004;6.770;2022-10-10T14:21:19;13.40;99.90
54178;DHT22;40085;53.004;6.770;2022-10-10T14:23:45;13.30;99.90
54178;DHT22;40085;53.004;6.770;2022-10-10T14:26:16;13.20;99.90
54178;DHT22;40085;53.004;6.770;2022-10-10T14:28:43;13.10;99.90
54178;DHT22;40085;53.004;6.770;2022-10-10T14:31:09;13.00;99.90
54178;DHT22;40085;53.004;6.770;2022-10-10T14:33:35;12.90;99.90
54178;DHT22;40085;53.004;6.770;2022-10-10T14:36:02;12.80;99.90
54178;DHT22;40085;53.004;6.770;2022-10-10T14:38:28;12.70;99.90
54178;DHT22;40085;53.004;6.770;2022-10-10T14:40:54;12.70;99.90
54178;DHT22;40085;53.004;6.770;2022-10-10T14:43:20;12.70;99.90
54178;DHT22;40085;53.004;6.770;2022-10-10T14:45:49;12.60;99.90
54178;DHT22;40085;53.004;6.770;2022-10-10T14:48:16;12.50;99.90
54178;DHT22;40085;53.004;6.770;2022-10-10T14:50:46;12.50;99.90
54178;DHT22;40085;53.004;6.770;2022-10-10T14:53:12;12.50;99.90
54178;DHT22;40085;53.004;6.770;2022-10-10T14:55:38;12.50;99.90
54178;DHT22;40085;53.004;6.770;2022-10-10T14:58:14;12.50;99.90
54178;DHT22;40085;53.004;6.770;2022-10-10T15:00:40;12.50;99.90
54178;DHT22;40085;53.004;6.770;2022-10-10T15:03:06;12.60;99.90
54178;DHT22;40085;53.004;6.770;2022-10-10T15:05:32;12.40;99.90
54178;DHT22;40085;53.004;6.770;2022-10-10T15:07:58;12.40;99.90
54178;DHT22;40085;53.004;6.770;2022-10-10T15:10:23;12.40;99.90
54178;DHT22;40085;53.004;6.770;2022-10-10T15:12:49;12.50;99.90
54178;DHT22;40085;53.004;6.770;2022-10-10T15:15:15;12.50;99.90
54178;DHT22;40085;53.004;6.770;2022-10-10T15:17:41;12.50;99.90
54178;DHT22;40085;53.004;6.770;2022-10-10T15:20:08;12.60;99.90
54178;DHT22;40085;53.004;6.770;2022-10-10T15:22:35;12.60;99.90
54178;DHT22;40085;53.004;6.770;2022-10-10T15:25:01;12.60;99.90
54178;DHT22;40085;53.004;6.770;2022-10-10T15:27:27;12.60;99.90
54178;DHT22;40085;53.004;6.770;2022-10-10T15:29:53;12.70;99.90
54178;DHT22;40085;53.004;6.770;2022-10-10T15:32:19;12.70;99.90
54178;DHT22;40085;53.004;6.770;2022-10-10T15:34:48;12.70;99.90
54178;DHT22;40085;53.004;6.770;2022-10-10T15:37:14;12.60;99.90
54178;DHT22;40085;53.004;6.770;2022-10-10T15:39:40;12.50;99.90
54178;DHT22;40085;53.004;6.770;2022-10-10T15:42:09;12.50;99.90
54178;DHT22;40085;53.004;6.770;2022-10-10T15:44:35;12.50;99.90
54178;DHT22;40085;53.004;6.770;2022-10-10T15:47:02;12.40;99.90
54178;DHT22;40085;53.004;6.770;2022-10-10T15:49:28;12.40;99.90
54178;DHT22;40085;53.004;6.770;2022-10-10T15:51:54;12.40;99.90
54178;DHT22;40085;53.004;6.770;2022-10-10T15:54:20;12.40;99.90
54178;DHT22;40085;53.004;6.770;2022-10-10T15:56:46;12.30;99.90
54178;DHT22;40085;53.004;6.770;2022-10-10T15:59:12;12.30;99.90
54178;DHT22;40085;53.004;6.770;2022-10-10T16:01:38;12.20;99.90
54178;DHT22;40085;53.004;6.770;2022-10-10T16:04:04;12.20;99.90
54178;DHT22;40085;53.004;6.770;2022-10-10T16:06:31;12.10;99.90
54178;DHT22;40085;53.004;6.770;2022-10-10T16:08:57;12.10;99.90
54178;DHT22;40085;53.004;6.770;2022-10-10T16:11:23;12.00;99.90
54178;DHT22;40085;53.004;6.770;2022-10-10T16:13:52;12.00;99.90
54178;DHT22;40085;53.004;6.770;2022-10-10T16:16:18;11.90;99.90
54178;DHT22;40085;53.004;6.770;2022-10-10T16:18:45;11.90;99.90
54178;DHT22;40085;53.004;6.770;2022-10-10T16:21:16;11.80;99.90
54178;DHT22;40085;53.004;6.770;2022-10-10T16:23:43;11.80;99.90
54178;DHT22;40085;53.004;6.770;2022-10-10T16:26:15;11.70;99.90
54178;DHT22;40085;53.004;6.770;2022-10-10T16:28:42;11.60;99.90
54178;DHT22;40085;53.004;6.770;2022-10-10T16:31:09;11.60;99.90
54178;DHT22;40085;53.004;6.770;2022-10-10T16:33:37;11.50;99.90
54178;DHT22;40085;53.004;6.770;2022-10-10T16:36:09;11.40;99.90
54178;DHT22;40085;53.004;6.770;2022-10-10T16:38:36;11.30;99.90
54178;DHT22;40085;53.004;6.770;2022-10-10T16:41:03;11.20;99.90
54178;DHT22;40085;53.004;6.770;2022-10-10T16:43:30;11.20;99.90
54178;DHT22;40085;53.004;6.770;2022-10-10T16:46:00;11.10;99.90
54178;DHT22;40085;53.004;6.770;2022-10-10T16:48:28;11.00;99.90
54178;DHT22;40085;53.004;6.770;2022-10-10T16:50:54;10.90;99.90
54178;DHT22;40085;53.004;6.770;2022-10-10T16:53:20;10.90;99.90
54178;DHT22;40085;53.004;6.770;2022-10-10T16:55:46;10.80;99.90
54178;DHT22;40085;53.004;6.770;2022-10-10T16:58:11;10.70;99.90
54178;DHT22;40085;53.004;6.770;2022-10-10T17:00:40;10.70;99.90
54178;DHT22;40085;53.004;6.770;2022-10-10T17:03:06;10.60;99.90
54178;DHT22;40085;53.004;6.770;2022-10-10T17:05:32;10.60;99.90
54178;DHT22;40085;53.004;6.770;2022-10-10T17:07:58;10.50;99.90
54178;DHT22;40085;53.004;6.770;2022-10-10T17:10:24;10.50;99.90
54178;DHT22;40085;53.004;6.770;2022-10-10T17:12:50;10.40;99.90
54178;DHT22;40085;53.004;6.770;2022-10-10T17:15:16;10.30;99.90
54178;DHT22;40085;53.004;6.770;2022-10-10T17:17:41;10.30;99.90
54178;DHT22;40085;53.004;6.770;2022-10-10T17:20:10;10.20;99.90
54178;DHT22;40085;53.004;6.770;2022-10-10T17:22:36;10.20;99.90
54178;DHT22;40085;53.004;6.770;2022-10-10T17:25:01;10.10;99.90
54178;DHT22;40085;53.004;6.770;2022-10-10T17:27:27;10.10;99.90
54178;DHT22;40085;53.004;6.770;2022-10-10T17:29:54;10.10;99.90
54178;DHT22;40085;53.004;6.770;2022-10-10T17:32:20;10.10;99.90
54178;DHT22;40085;53.004;6.770;2022-10-10T17:34:46;10.20;99.90
54178;DHT22;40085;53.004;6.770;2022-10-10T17:37:11;10.00;99.90
54178;DHT22;40085;53.004;6.770;2022-10-10T17:39:37;10.00;99.90
54178;DHT22;40085;53.004;6.770;2022-10-10T17:42:03;10.00;99.90
54178;DHT22;40085;53.004;6.770;2022-10-10T17:44:30;9.90;99.90
54178;DHT22;40085;53.004;6.770;2022-10-10T17:46:56;9.90;99.90
54178;DHT22;40085;53.004;6.770;2022-10-10T17:49:22;9.90;99.90
54178;DHT22;40085;53.004;6.770;2022-10-10T17:51:47;9.80;99.90
54178;DHT22;40085;53.004;6.770;2022-10-10T17:54:13;10.50;99.90
54178;DHT22;40085;53.004;6.770;2022-10-10T17:56:39;9.70;99.90
54178;DHT22;40085;53.004;6.770;2022-10-10T17:59:06;9.70;99.90
54178;DHT22;40085;53.004;6.770;2022-10-10T18:01:33;9.60;99.90